Gilbert Plains, Canada
Current Conditions -  °F | °C
As of 7:00 PM on Tuesday 25 Nov 2014 (Local Time) from CYDN Reporting Station
Clear Clear  
Wind Chill: -28°   Ceiling: Unl
Heat Index: -21°   Visibility: 9mi
Dew Point: -23°   Wind: 6mph
Humidity: 84%   Direction: 360°N
Pressure: 30.22"   Gusts: NA
Location:  51.13°N, 100.48°W
Report Text: CYDN 260100Z AUTO 36005KT 9SM CLR M21/M23 A3022 RMK SLP265
Loading
Personal Weather Stations






























Interactive Weather Map New forecast layout! Learn more

10-Day Weather Forecast

Advertisements
Track Severe Weather on mobile